sensor_id;sensor_type;location;lat;lon;timestamp;P1;durP1;ratioP1;P2;durP2;ratioP2
38937;SDS011;24727;51.974;20.868;2023-04-25T00:00:09;11.70;;;8.98;;
38937;SDS011;24727;51.974;20.868;2023-04-25T00:02:36;11.57;;;8.70;;
38937;SDS011;24727;51.974;20.868;2023-04-25T00:05:02;13.13;;;8.82;;
38937;SDS011;24727;51.974;20.868;2023-04-25T00:07:31;13.55;;;10.55;;
38937;SDS011;24727;51.974;20.868;2023-04-25T00:09:58;21.13;;;9.48;;
38937;SDS011;24727;51.974;20.868;2023-04-25T00:12:24;17.25;;;9.60;;
38937;SDS011;24727;51.974;20.868;2023-04-25T00:14:52;16.65;;;10.38;;
38937;SDS011;24727;51.974;20.868;2023-04-25T00:17:18;18.10;;;11.10;;
38937;SDS011;24727;51.974;20.868;2023-04-25T00:19:44;12.13;;;9.60;;
38937;SDS011;24727;51.974;20.868;2023-04-25T00:22:11;18.80;;;10.75;;
38937;SDS011;24727;51.974;20.868;2023-04-25T00:24:38;11.95;;;9.43;;
38937;SDS011;24727;51.974;20.868;2023-04-25T00:27:10;12.15;;;9.05;;
38937;SDS011;24727;51.974;20.868;2023-04-25T00:29:36;14.07;;;10.18;;
38937;SDS011;24727;51.974;20.868;2023-04-25T00:32:02;13.07;;;9.32;;
38937;SDS011;24727;51.974;20.868;2023-04-25T00:34:30;14.18;;;10.32;;
38937;SDS011;24727;51.974;20.868;2023-04-25T00:36:56;13.40;;;9.32;;
38937;SDS011;24727;51.974;20.868;2023-04-25T00:39:22;16.00;;;9.75;;
38937;SDS011;24727;51.974;20.868;2023-04-25T00:41:48;14.15;;;9.88;;
38937;SDS011;24727;51.974;20.868;2023-04-25T00:44:18;14.88;;;9.68;;
38937;SDS011;24727;51.974;20.868;2023-04-25T00:46:45;10.95;;;8.35;;
38937;SDS011;24727;51.974;20.868;2023-04-25T00:49:13;14.07;;;9.40;;
38937;SDS011;24727;51.974;20.868;2023-04-25T00:51:42;14.63;;;9.85;;
38937;SDS011;24727;51.974;20.868;2023-04-25T00:54:14;13.45;;;10.55;;
38937;SDS011;24727;51.974;20.868;2023-04-25T00:56:42;14.43;;;10.77;;
38937;SDS011;24727;51.974;20.868;2023-04-25T00:59:09;15.32;;;10.82;;
38937;SDS011;24727;51.974;20.868;2023-04-25T01:01:35;13.07;;;9.57;;
38937;SDS011;24727;51.974;20.868;2023-04-25T01:04:01;11.40;;;9.15;;
38937;SDS011;24727;51.974;20.868;2023-04-25T01:06:28;12.88;;;9.50;;
38937;SDS011;24727;51.974;20.868;2023-04-25T01:08:55;11.35;;;9.27;;
38937;SDS011;24727;51.974;20.868;2023-04-25T01:11:22;12.35;;;9.93;;
38937;SDS011;24727;51.974;20.868;2023-04-25T01:13:50;13.45;;;10.30;;
38937;SDS011;24727;51.974;20.868;2023-04-25T01:16:17;15.68;;;10.35;;
38937;SDS011;24727;51.974;20.868;2023-04-25T01:18:45;16.98;;;11.52;;
38937;SDS011;24727;51.974;20.868;2023-04-25T01:21:13;18.48;;;10.93;;
38937;SDS011;24727;51.974;20.868;2023-04-25T01:23:40;13.93;;;10.73;;
38937;SDS011;24727;51.974;20.868;2023-04-25T01:26:08;17.98;;;12.73;;
38937;SDS011;24727;51.974;20.868;2023-04-25T01:28:36;17.65;;;12.10;;
38937;SDS011;24727;51.974;20.868;2023-04-25T01:31:03;15.23;;;11.98;;
38937;SDS011;24727;51.974;20.868;2023-04-25T01:33:31;17.30;;;11.95;;
38937;SDS011;24727;51.974;20.868;2023-04-25T01:35:57;17.77;;;12.10;;
38937;SDS011;24727;51.974;20.868;2023-04-25T01:38:23;15.18;;;11.10;;
38937;SDS011;24727;51.974;20.868;2023-04-25T01:40:50;12.68;;;10.10;;
38937;SDS011;24727;51.974;20.868;2023-04-25T01:43:18;14.40;;;10.18;;
38937;SDS011;24727;51.974;20.868;2023-04-25T01:45:45;13.90;;;9.70;;
38937;SDS011;24727;51.974;20.868;2023-04-25T01:48:13;13.82;;;9.10;;
38937;SDS011;24727;51.974;20.868;2023-04-25T01:50:40;12.55;;;9.15;;
38937;SDS011;24727;51.974;20.868;2023-04-25T01:53:07;12.13;;;8.88;;
38937;SDS011;24727;51.974;20.868;2023-04-25T01:55:36;12.93;;;8.65;;
38937;SDS011;24727;51.974;20.868;2023-04-25T01:58:02;14.65;;;9.20;;
38937;SDS011;24727;51.974;20.868;2023-04-25T02:00:29;10.70;;;7.90;;
38937;SDS011;24727;51.974;20.868;2023-04-25T02:02:57;10.80;;;7.88;;
38937;SDS011;24727;51.974;20.868;2023-04-25T02:05:24;10.43;;;7.85;;
38937;SDS011;24727;51.974;20.868;2023-04-25T02:07:50;10.30;;;7.15;;
38937;SDS011;24727;51.974;20.868;2023-04-25T02:10:16;10.40;;;7.43;;
38937;SDS011;24727;51.974;20.868;2023-04-25T02:12:42;9.38;;;7.10;;
38937;SDS011;24727;51.974;20.868;2023-04-25T02:15:09;11.35;;;6.53;;
38937;SDS011;24727;51.974;20.868;2023-04-25T02:17:36;9.88;;;7.25;;
38937;SDS011;24727;51.974;20.868;2023-04-25T02:20:03;10.60;;;6.80;;
38937;SDS011;24727;51.974;20.868;2023-04-25T02:22:29;11.43;;;7.57;;
38937;SDS011;24727;51.974;20.868;2023-04-25T02:24:56;9.02;;;6.97;;
38937;SDS011;24727;51.974;20.868;2023-04-25T02:27:21;7.70;;;6.07;;
38937;SDS011;24727;51.974;20.868;2023-04-25T02:29:47;10.73;;;6.55;;
38937;SDS011;24727;51.974;20.868;2023-04-25T02:32:13;9.60;;;6.78;;
38937;SDS011;24727;51.974;20.868;2023-04-25T02:34:39;9.23;;;6.65;;
38937;SDS011;24727;51.974;20.868;2023-04-25T02:37:06;9.15;;;6.30;;
38937;SDS011;24727;51.974;20.868;2023-04-25T02:39:32;10.27;;;6.95;;
38937;SDS011;24727;51.974;20.868;2023-04-25T02:41:57;9.63;;;6.60;;
38937;SDS011;24727;51.974;20.868;2023-04-25T02:44:23;9.88;;;6.28;;
38937;SDS011;24727;51.974;20.868;2023-04-25T02:46:50;9.52;;;6.82;;
38937;SDS011;24727;51.974;20.868;2023-04-25T02:49:17;8.63;;;6.07;;
38937;SDS011;24727;51.974;20.868;2023-04-25T02:51:44;9.85;;;6.13;;
38937;SDS011;24727;51.974;20.868;2023-04-25T02:54:16;9.85;;;6.43;;
38937;SDS011;24727;51.974;20.868;2023-04-25T02:56:42;8.75;;;6.20;;
38937;SDS011;24727;51.974;20.868;2023-04-25T02:59:08;9.45;;;6.53;;
38937;SDS011;24727;51.974;20.868;2023-04-25T03:01:34;6.85;;;5.53;;
38937;SDS011;24727;51.974;20.868;2023-04-25T03:04:00;21.15;;;6.07;;
38937;SDS011;24727;51.974;20.868;2023-04-25T03:06:27;7.28;;;5.50;;
38937;SDS011;24727;51.974;20.868;2023-04-25T03:08:54;7.22;;;5.22;;
38937;SDS011;24727;51.974;20.868;2023-04-25T03:11:20;6.85;;;5.07;;
38937;SDS011;24727;51.974;20.868;2023-04-25T03:13:48;7.32;;;5.32;;
38937;SDS011;24727;51.974;20.868;2023-04-25T03:16:15;8.50;;;5.47;;
38937;SDS011;24727;51.974;20.868;2023-04-25T03:18:42;6.68;;;4.57;;
38937;SDS011;24727;51.974;20.868;2023-04-25T03:21:08;7.60;;;5.10;;
38937;SDS011;24727;51.974;20.868;2023-04-25T03:23:34;7.63;;;5.00;;
38937;SDS011;24727;51.974;20.868;2023-04-25T03:26:08;6.65;;;4.90;;
38937;SDS011;24727;51.974;20.868;2023-04-25T03:28:35;9.98;;;5.35;;
38937;SDS011;24727;51.974;20.868;2023-04-25T03:31:01;6.15;;;4.75;;
38937;SDS011;24727;51.974;20.868;2023-04-25T03:33:27;7.97;;;5.65;;
38937;SDS011;24727;51.974;20.868;2023-04-25T03:35:54;7.10;;;5.05;;
38937;SDS011;24727;51.974;20.868;2023-04-25T03:38:20;6.00;;;4.72;;
38937;SDS011;24727;51.974;20.868;2023-04-25T03:40:46;6.82;;;5.18;;
38937;SDS011;24727;51.974;20.868;2023-04-25T03:43:14;7.15;;;5.10;;
38937;SDS011;24727;51.974;20.868;2023-04-25T03:45:41;7.97;;;5.07;;
38937;SDS011;24727;51.974;20.868;2023-04-25T03:48:07;7.35;;;4.90;;
38937;SDS011;24727;51.974;20.868;2023-04-25T03:50:32;7.60;;;5.45;;
38937;SDS011;24727;51.974;20.868;2023-04-25T03:53:04;7.18;;;5.47;;
38937;SDS011;24727;51.974;20.868;2023-04-25T03:55:30;6.40;;;5.00;;
38937;SDS011;24727;51.974;20.868;2023-04-25T03:57:58;7.45;;;5.25;;
38937;SDS011;24727;51.974;20.868;2023-04-25T04:00:26;7.50;;;5.63;;
38937;SDS011;24727;51.974;20.868;2023-04-25T04:02:53;9.23;;;6.00;;
38937;SDS011;24727;51.974;20.868;2023-04-25T04:05:19;8.10;;;6.00;;
38937;SDS011;24727;51.974;20.868;2023-04-25T04:07:45;8.13;;;6.07;;
38937;SDS011;24727;51.974;20.868;2023-04-25T04:10:12;8.07;;;6.07;;
38937;SDS011;24727;51.974;20.868;2023-04-25T04:12:39;7.65;;;6.00;;
38937;SDS011;24727;51.974;20.868;2023-04-25T04:15:07;10.65;;;6.75;;
38937;SDS011;24727;51.974;20.868;2023-04-25T04:17:36;10.02;;;6.88;;
38937;SDS011;24727;51.974;20.868;2023-04-25T04:20:02;9.82;;;7.30;;
38937;SDS011;24727;51.974;20.868;2023-04-25T04:22:29;8.50;;;6.75;;
38937;SDS011;24727;51.974;20.868;2023-04-25T04:24:56;11.23;;;7.68;;
38937;SDS011;24727;51.974;20.868;2023-04-25T04:27:23;10.55;;;8.15;;
38937;SDS011;24727;51.974;20.868;2023-04-25T04:29:49;10.07;;;8.25;;
38937;SDS011;24727;51.974;20.868;2023-04-25T04:32:17;13.65;;;9.10;;
38937;SDS011;24727;51.974;20.868;2023-04-25T04:34:43;10.77;;;8.20;;
38937;SDS011;24727;51.974;20.868;2023-04-25T04:37:10;10.63;;;9.02;;
38937;SDS011;24727;51.974;20.868;2023-04-25T04:39:39;12.40;;;9.18;;
38937;SDS011;24727;51.974;20.868;2023-04-25T04:42:05;12.38;;;9.52;;
38937;SDS011;24727;51.974;20.868;2023-04-25T04:44:40;13.55;;;9.90;;
38937;SDS011;24727;51.974;20.868;2023-04-25T04:47:05;11.93;;;9.95;;
38937;SDS011;24727;51.974;20.868;2023-04-25T04:49:32;13.35;;;10.40;;
38937;SDS011;24727;51.974;20.868;2023-04-25T04:51:58;14.48;;;11.38;;
38937;SDS011;24727;51.974;20.868;2023-04-25T04:54:25;14.82;;;11.70;;
38937;SDS011;24727;51.974;20.868;2023-04-25T04:56:52;16.20;;;12.13;;
38937;SDS011;24727;51.974;20.868;2023-04-25T04:59:18;14.07;;;11.20;;
38937;SDS011;24727;51.974;20.868;2023-04-25T05:01:43;15.45;;;12.07;;
38937;SDS011;24727;51.974;20.868;2023-04-25T05:04:17;15.50;;;12.25;;
38937;SDS011;24727;51.974;20.868;2023-04-25T05:06:43;15.52;;;12.00;;
38937;SDS011;24727;51.974;20.868;2023-04-25T05:09:09;17.92;;;11.95;;
38937;SDS011;24727;51.974;20.868;2023-04-25T05:11:35;16.60;;;12.10;;
38937;SDS011;24727;51.974;20.868;2023-04-25T05:14:01;16.42;;;12.45;;
38937;SDS011;24727;51.974;20.868;2023-04-25T05:16:27;16.50;;;13.27;;
38937;SDS011;24727;51.974;20.868;2023-04-25T05:18:53;17.90;;;13.27;;
38937;SDS011;24727;51.974;20.868;2023-04-25T05:21:20;17.95;;;12.45;;
38937;SDS011;24727;51.974;20.868;2023-04-25T05:23:47;15.15;;;12.18;;
38937;SDS011;24727;51.974;20.868;2023-04-25T05:26:14;17.98;;;13.43;;
38937;SDS011;24727;51.974;20.868;2023-04-25T05:28:41;16.95;;;12.55;;
38937;SDS011;24727;51.974;20.868;2023-04-25T05:31:09;15.88;;;11.80;;
38937;SDS011;24727;51.974;20.868;2023-04-25T05:33:35;16.88;;;12.65;;
38937;SDS011;24727;51.974;20.868;2023-04-25T05:36:01;17.80;;;13.77;;
38937;SDS011;24727;51.974;20.868;2023-04-25T05:38:27;17.33;;;13.02;;
38937;SDS011;24727;51.974;20.868;2023-04-25T05:40:53;16.67;;;13.13;;
38937;SDS011;24727;51.974;20.868;2023-04-25T05:43:19;18.00;;;13.02;;
38937;SDS011;24727;51.974;20.868;2023-04-25T05:45:46;15.07;;;12.18;;
38937;SDS011;24727;51.974;20.868;2023-04-25T05:48:14;20.45;;;13.07;;
38937;SDS011;24727;51.974;20.868;2023-04-25T05:50:40;15.75;;;11.68;;
38937;SDS011;24727;51.974;20.868;2023-04-25T05:53:08;19.05;;;13.00;;
38937;SDS011;24727;51.974;20.868;2023-04-25T05:55:34;18.98;;;11.95;;
38937;SDS011;24727;51.974;20.868;2023-04-25T05:58:00;16.52;;;11.82;;
38937;SDS011;24727;51.974;20.868;2023-04-25T06:00:26;14.30;;;11.00;;
38937;SDS011;24727;51.974;20.868;2023-04-25T06:02:52;19.20;;;11.40;;
38937;SDS011;24727;51.974;20.868;2023-04-25T06:05:19;16.00;;;11.75;;
38937;SDS011;24727;51.974;20.868;2023-04-25T06:07:45;14.98;;;11.93;;
38937;SDS011;24727;51.974;20.868;2023-04-25T06:10:11;19.15;;;11.73;;
38937;SDS011;24727;51.974;20.868;2023-04-25T06:12:37;16.30;;;11.93;;
38937;SDS011;24727;51.974;20.868;2023-04-25T06:15:04;16.60;;;12.45;;
38937;SDS011;24727;51.974;20.868;2023-04-25T06:17:31;15.70;;;12.88;;
38937;SDS011;24727;51.974;20.868;2023-04-25T06:19:58;17.23;;;14.02;;
38937;SDS011;24727;51.974;20.868;2023-04-25T06:22:23;15.57;;;12.55;;
38937;SDS011;24727;51.974;20.868;2023-04-25T06:24:49;18.52;;;12.98;;
38937;SDS011;24727;51.974;20.868;2023-04-25T06:27:16;18.02;;;12.50;;
38937;SDS011;24727;51.974;20.868;2023-04-25T06:29:43;16.90;;;12.50;;
38937;SDS011;24727;51.974;20.868;2023-04-25T06:32:09;15.70;;;13.07;;
38937;SDS011;24727;51.974;20.868;2023-04-25T06:34:35;17.25;;;13.02;;
38937;SDS011;24727;51.974;20.868;2023-04-25T06:37:01;18.38;;;12.90;;
38937;SDS011;24727;51.974;20.868;2023-04-25T06:39:27;17.27;;;13.27;;
38937;SDS011;24727;51.974;20.868;2023-04-25T06:41:53;19.30;;;13.82;;
38937;SDS011;24727;51.974;20.868;2023-04-25T06:44:20;15.45;;;13.57;;
38937;SDS011;24727;51.974;20.868;2023-04-25T06:46:50;14.35;;;12.15;;
38937;SDS011;24727;51.974;20.868;2023-04-25T06:49:16;18.90;;;12.18;;
38937;SDS011;24727;51.974;20.868;2023-04-25T06:51:42;15.05;;;10.68;;
38937;SDS011;24727;51.974;20.868;2023-04-25T06:54:08;18.23;;;12.52;;
38937;SDS011;24727;51.974;20.868;2023-04-25T06:56:35;16.00;;;12.63;;
38937;SDS011;24727;51.974;20.868;2023-04-25T06:59:02;17.33;;;12.77;;
38937;SDS011;24727;51.974;20.868;2023-04-25T07:01:29;16.25;;;12.75;;
38937;SDS011;24727;51.974;20.868;2023-04-25T07:03:57;20.83;;;12.93;;
38937;SDS011;24727;51.974;20.868;2023-04-25T07:06:24;16.95;;;12.68;;
38937;SDS011;24727;51.974;20.868;2023-04-25T07:08:52;14.48;;;12.25;;
38937;SDS011;24727;51.974;20.868;2023-04-25T07:11:19;16.83;;;12.27;;
38937;SDS011;24727;51.974;20.868;2023-04-25T07:13:45;18.25;;;10.82;;
38937;SDS011;24727;51.974;20.868;2023-04-25T07:16:11;14.40;;;11.10;;
38937;SDS011;24727;51.974;20.868;2023-04-25T07:18:39;14.73;;;11.50;;
38937;SDS011;24727;51.974;20.868;2023-04-25T07:21:05;13.55;;;10.93;;
38937;SDS011;24727;51.974;20.868;2023-04-25T07:23:31;15.50;;;11.93;;
38937;SDS011;24727;51.974;20.868;2023-04-25T07:25:57;16.05;;;10.98;;
38937;SDS011;24727;51.974;20.868;2023-04-25T07:28:24;15.57;;;11.20;;
38937;SDS011;24727;51.974;20.868;2023-04-25T07:30:50;16.35;;;11.52;;
38937;SDS011;24727;51.974;20.868;2023-04-25T07:33:23;12.23;;;10.93;;
38937;SDS011;24727;51.974;20.868;2023-04-25T07:35:50;11.73;;;9.63;;
38937;SDS011;24727;51.974;20.868;2023-04-25T07:38:16;12.73;;;10.65;;
38937;SDS011;24727;51.974;20.868;2023-04-25T07:40:42;13.68;;;10.32;;
38937;SDS011;24727;51.974;20.868;2023-04-25T07:43:10;14.70;;;10.90;;
38937;SDS011;24727;51.974;20.868;2023-04-25T07:45:39;12.38;;;10.15;;
38937;SDS011;24727;51.974;20.868;2023-04-25T07:48:05;11.95;;;9.43;;
38937;SDS011;24727;51.974;20.868;2023-04-25T07:50:31;13.43;;;9.90;;
38937;SDS011;24727;51.974;20.868;2023-04-25T07:52:59;12.35;;;9.98;;
38937;SDS011;24727;51.974;20.868;2023-04-25T07:55:25;10.18;;;8.45;;
38937;SDS011;24727;51.974;20.868;2023-04-25T07:57:52;11.43;;;9.00;;
38937;SDS011;24727;51.974;20.868;2023-04-25T08:00:24;10.15;;;8.57;;
38937;SDS011;24727;51.974;20.868;2023-04-25T08:05:17;11.15;;;9.18;;
38937;SDS011;24727;51.974;20.868;2023-04-25T08:07:43;9.48;;;7.82;;
38937;SDS011;24727;51.974;20.868;2023-04-25T08:10:10;9.68;;;7.32;;
38937;SDS011;24727;51.974;20.868;2023-04-25T08:12:36;11.38;;;8.27;;
38937;SDS011;24727;51.974;20.868;2023-04-25T08:15:02;13.48;;;9.38;;
38937;SDS011;24727;51.974;20.868;2023-04-25T08:17:30;11.60;;;8.50;;
38937;SDS011;24727;51.974;20.868;2023-04-25T08:19:57;11.30;;;8.57;;
38937;SDS011;24727;51.974;20.868;2023-04-25T08:22:23;11.48;;;8.50;;
38937;SDS011;24727;51.974;20.868;2023-04-25T08:24:51;11.60;;;8.50;;
38937;SDS011;24727;51.974;20.868;2023-04-25T08:27:19;9.23;;;7.80;;
38937;SDS011;24727;51.974;20.868;2023-04-25T08:29:47;10.95;;;7.90;;
38937;SDS011;24727;51.974;20.868;2023-04-25T08:32:14;10.77;;;7.07;;
38937;SDS011;24727;51.974;20.868;2023-04-25T08:34:39;9.48;;;7.40;;
38937;SDS011;24727;51.974;20.868;2023-04-25T08:37:07;9.82;;;7.55;;
38937;SDS011;24727;51.974;20.868;2023-04-25T08:39:35;9.20;;;6.28;;
38937;SDS011;24727;51.974;20.868;2023-04-25T08:42:06;13.35;;;9.10;;
38937;SDS011;24727;51.974;20.868;2023-04-25T08:44:36;11.07;;;8.07;;
38937;SDS011;24727;51.974;20.868;2023-04-25T08:47:05;10.23;;;7.75;;
38937;SDS011;24727;51.974;20.868;2023-04-25T08:49:32;10.50;;;8.07;;
38937;SDS011;24727;51.974;20.868;2023-04-25T08:52:03;11.70;;;8.20;;
38937;SDS011;24727;51.974;20.868;2023-04-25T08:54:32;11.02;;;8.73;;
38937;SDS011;24727;51.974;20.868;2023-04-25T08:57:02;9.57;;;7.78;;
38937;SDS011;24727;51.974;20.868;2023-04-25T08:59:29;12.90;;;8.43;;
38937;SDS011;24727;51.974;20.868;2023-04-25T09:01:56;12.43;;;8.70;;
38937;SDS011;24727;51.974;20.868;2023-04-25T09:04:23;13.70;;;8.73;;
38937;SDS011;24727;51.974;20.868;2023-04-25T09:06:49;14.52;;;7.97;;
38937;SDS011;24727;51.974;20.868;2023-04-25T09:09:16;11.90;;;7.85;;
38937;SDS011;24727;51.974;20.868;2023-04-25T09:11:42;10.45;;;8.10;;
38937;SDS011;24727;51.974;20.868;2023-04-25T09:14:18;12.90;;;9.48;;
38937;SDS011;24727;51.974;20.868;2023-04-25T09:19:25;10.15;;;8.30;;
38937;SDS011;24727;51.974;20.868;2023-04-25T09:21:59;10.95;;;7.35;;
38937;SDS011;24727;51.974;20.868;2023-04-25T09:24:46;11.20;;;8.75;;
38937;SDS011;24727;51.974;20.868;2023-04-25T09:27:18;11.20;;;8.55;;
38937;SDS011;24727;51.974;20.868;2023-04-25T09:29:45;9.20;;;7.13;;
38937;SDS011;24727;51.974;20.868;2023-04-25T09:34:44;9.20;;;7.13;;
38937;SDS011;24727;51.974;20.868;2023-04-25T09:37:33;9.45;;;7.55;;
38937;SDS011;24727;51.974;20.868;2023-04-25T09:40:00;12.15;;;8.15;;
38937;SDS011;24727;51.974;20.868;2023-04-25T09:42:33;12.18;;;8.55;;
38937;SDS011;24727;51.974;20.868;2023-04-25T09:45:00;11.75;;;8.23;;
38937;SDS011;24727;51.974;20.868;2023-04-25T09:47:29;11.98;;;8.57;;
38937;SDS011;24727;51.974;20.868;2023-04-25T09:49:58;10.27;;;8.15;;
38937;SDS011;24727;51.974;20.868;2023-04-25T09:52:26;12.23;;;9.35;;
38937;SDS011;24727;51.974;20.868;2023-04-25T09:54:53;11.75;;;8.98;;
38937;SDS011;24727;51.974;20.868;2023-04-25T09:57:23;12.07;;;9.68;;
38937;SDS011;24727;51.974;20.868;2023-04-25T09:59:52;13.73;;;10.68;;
38937;SDS011;24727;51.974;20.868;2023-04-25T10:02:20;12.38;;;9.20;;
38937;SDS011;24727;51.974;20.868;2023-04-25T10:04:53;13.75;;;9.93;;
38937;SDS011;24727;51.974;20.868;2023-04-25T10:07:24;12.00;;;9.57;;
38937;SDS011;24727;51.974;20.868;2023-04-25T10:09:58;12.52;;;9.52;;
38937;SDS011;24727;51.974;20.868;2023-04-25T10:12:30;15.25;;;9.95;;
38937;SDS011;24727;51.974;20.868;2023-04-25T10:14:58;30.95;;;11.30;;
38937;SDS011;24727;51.974;20.868;2023-04-25T10:17:25;14.07;;;9.80;;
38937;SDS011;24727;51.974;20.868;2023-04-25T10:20:03;14.02;;;9.57;;
38937;SDS011;24727;51.974;20.868;2023-04-25T10:22:36;11.95;;;9.23;;
38937;SDS011;24727;51.974;20.868;2023-04-25T10:27:34;12.20;;;9.05;;
38937;SDS011;24727;51.974;20.868;2023-04-25T10:30:05;11.38;;;8.95;;
38937;SDS011;24727;51.974;20.868;2023-04-25T10:32:37;12.20;;;8.27;;
38937;SDS011;24727;51.974;20.868;2023-04-25T10:35:22;12.75;;;8.55;;
38937;SDS011;24727;51.974;20.868;2023-04-25T10:38:03;10.07;;;8.35;;
38937;SDS011;24727;51.974;20.868;2023-04-25T10:40:38;11.57;;;8.25;;
38937;SDS011;24727;51.974;20.868;2023-04-25T10:45:57;10.35;;;7.43;;
38937;SDS011;24727;51.974;20.868;2023-04-25T10:48:33;9.50;;;7.20;;
38937;SDS011;24727;51.974;20.868;2023-04-25T10:51:06;10.35;;;8.20;;
38937;SDS011;24727;51.974;20.868;2023-04-25T10:53:38;10.55;;;8.10;;
38937;SDS011;24727;51.974;20.868;2023-04-25T10:56:40;11.10;;;8.55;;
38937;SDS011;24727;51.974;20.868;2023-04-25T10:59:05;10.45;;;8.13;;
38937;SDS011;24727;51.974;20.868;2023-04-25T11:04:05;10.15;;;7.03;;
38937;SDS011;24727;51.974;20.868;2023-04-25T11:09:17;8.18;;;6.63;;
38937;SDS011;24727;51.974;20.868;2023-04-25T11:11:53;7.97;;;6.60;;
38937;SDS011;24727;51.974;20.868;2023-04-25T11:14:20;7.20;;;5.82;;
38937;SDS011;24727;51.974;20.868;2023-04-25T11:16:47;6.18;;;5.57;;
38937;SDS011;24727;51.974;20.868;2023-04-25T11:19:23;5.72;;;5.13;;
38937;SDS011;24727;51.974;20.868;2023-04-25T11:21:51;9.07;;;5.53;;
38937;SDS011;24727;51.974;20.868;2023-04-25T11:24:32;6.88;;;5.45;;
38937;SDS011;24727;51.974;20.868;2023-04-25T11:27:02;8.55;;;4.80;;
38937;SDS011;24727;51.974;20.868;2023-04-25T11:29:32;6.18;;;5.55;;
38937;SDS011;24727;51.974;20.868;2023-04-25T11:32:01;6.25;;;4.75;;
38937;SDS011;24727;51.974;20.868;2023-04-25T11:34:28;8.45;;;6.05;;
38937;SDS011;24727;51.974;20.868;2023-04-25T11:36:58;4.97;;;4.32;;
38937;SDS011;24727;51.974;20.868;2023-04-25T11:39:27;5.63;;;4.68;;
38937;SDS011;24727;51.974;20.868;2023-04-25T11:41:54;7.00;;;5.35;;
38937;SDS011;24727;51.974;20.868;2023-04-25T11:44:22;6.07;;;4.55;;
38937;SDS011;24727;51.974;20.868;2023-04-25T11:46:50;6.22;;;5.25;;
38937;SDS011;24727;51.974;20.868;2023-04-25T11:49:16;4.97;;;4.28;;
38937;SDS011;24727;51.974;20.868;2023-04-25T11:51:45;6.90;;;5.00;;
38937;SDS011;24727;51.974;20.868;2023-04-25T11:54:15;5.38;;;4.65;;
38937;SDS011;24727;51.974;20.868;2023-04-25T11:56:41;7.53;;;4.50;;
38937;SDS011;24727;51.974;20.868;2023-04-25T11:59:08;5.15;;;3.83;;
38937;SDS011;24727;51.974;20.868;2023-04-25T12:01:36;6.38;;;3.90;;
38937;SDS011;24727;51.974;20.868;2023-04-25T12:04:16;5.97;;;4.88;;
38937;SDS011;24727;51.974;20.868;2023-04-25T12:06:50;5.40;;;4.32;;
38937;SDS011;24727;51.974;20.868;2023-04-25T12:09:29;6.05;;;4.30;;
38937;SDS011;24727;51.974;20.868;2023-04-25T12:11:59;4.93;;;4.20;;
38937;SDS011;24727;51.974;20.868;2023-04-25T12:14:45;6.88;;;4.95;;
38937;SDS011;24727;51.974;20.868;2023-04-25T12:17:16;5.45;;;4.50;;
38937;SDS011;24727;51.974;20.868;2023-04-25T12:19:42;5.45;;;4.63;;
38937;SDS011;24727;51.974;20.868;2023-04-25T12:22:22;6.20;;;4.55;;
38937;SDS011;24727;51.974;20.868;2023-04-25T12:24:49;5.63;;;4.05;;
38937;SDS011;24727;51.974;20.868;2023-04-25T12:27:16;4.40;;;3.97;;
38937;SDS011;24727;51.974;20.868;2023-04-25T12:29:54;4.90;;;4.28;;
38937;SDS011;24727;51.974;20.868;2023-04-25T12:32:21;3.83;;;3.42;;
38937;SDS011;24727;51.974;20.868;2023-04-25T12:34:48;3.92;;;2.78;;
38937;SDS011;24727;51.974;20.868;2023-04-25T12:37:18;4.47;;;3.05;;
38937;SDS011;24727;51.974;20.868;2023-04-25T12:39:45;4.38;;;3.25;;
38937;SDS011;24727;51.974;20.868;2023-04-25T12:42:14;6.78;;;3.50;;
38937;SDS011;24727;51.974;20.868;2023-04-25T12:44:40;4.65;;;4.13;;
38937;SDS011;24727;51.974;20.868;2023-04-25T12:47:06;5.10;;;3.92;;
38937;SDS011;24727;51.974;20.868;2023-04-25T12:49:33;5.13;;;3.60;;
38937;SDS011;24727;51.974;20.868;2023-04-25T12:51:59;5.03;;;3.95;;
38937;SDS011;24727;51.974;20.868;2023-04-25T12:54:25;4.85;;;3.80;;
38937;SDS011;24727;51.974;20.868;2023-04-25T12:56:51;6.40;;;3.92;;
38937;SDS011;24727;51.974;20.868;2023-04-25T12:59:18;5.55;;;4.20;;
38937;SDS011;24727;51.974;20.868;2023-04-25T13:01:45;5.78;;;4.57;;
38937;SDS011;24727;51.974;20.868;2023-04-25T13:04:11;6.50;;;4.63;;
38937;SDS011;24727;51.974;20.868;2023-04-25T13:06:37;5.20;;;4.68;;
38937;SDS011;24727;51.974;20.868;2023-04-25T13:09:03;6.00;;;4.32;;
38937;SDS011;24727;51.974;20.868;2023-04-25T13:11:30;5.47;;;4.22;;
38937;SDS011;24727;51.974;20.868;2023-04-25T13:13:56;6.32;;;4.47;;
38937;SDS011;24727;51.974;20.868;2023-04-25T13:16:23;6.18;;;4.68;;
38937;SDS011;24727;51.974;20.868;2023-04-25T13:18:49;5.95;;;4.13;;
38937;SDS011;24727;51.974;20.868;2023-04-25T13:21:16;7.85;;;4.78;;
38937;SDS011;24727;51.974;20.868;2023-04-25T13:23:42;8.93;;;5.03;;
38937;SDS011;24727;51.974;20.868;2023-04-25T13:26:09;5.45;;;4.35;;
38937;SDS011;24727;51.974;20.868;2023-04-25T13:28:43;11.43;;;4.85;;
38937;SDS011;24727;51.974;20.868;2023-04-25T13:31:10;8.60;;;4.93;;
38937;SDS011;24727;51.974;20.868;2023-04-25T13:33:36;9.90;;;5.45;;
38937;SDS011;24727;51.974;20.868;2023-04-25T13:36:03;6.25;;;5.15;;
38937;SDS011;24727;51.974;20.868;2023-04-25T13:38:29;11.85;;;5.03;;
38937;SDS011;24727;51.974;20.868;2023-04-25T13:40:56;6.65;;;5.50;;
38937;SDS011;24727;51.974;20.868;2023-04-25T13:43:22;7.97;;;5.15;;
38937;SDS011;24727;51.974;20.868;2023-04-25T13:45:48;7.63;;;5.05;;
38937;SDS011;24727;51.974;20.868;2023-04-25T13:48:15;9.00;;;5.85;;
38937;SDS011;24727;51.974;20.868;2023-04-25T13:50:41;8.75;;;5.35;;
38937;SDS011;24727;51.974;20.868;2023-04-25T13:53:07;7.18;;;5.43;;
38937;SDS011;24727;51.974;20.868;2023-04-25T13:55:34;7.57;;;6.25;;
38937;SDS011;24727;51.974;20.868;2023-04-25T13:58:02;7.10;;;5.75;;
38937;SDS011;24727;51.974;20.868;2023-04-25T14:00:35;8.25;;;5.20;;
38937;SDS011;24727;51.974;20.868;2023-04-25T14:03:03;8.68;;;6.22;;
38937;SDS011;24727;51.974;20.868;2023-04-25T14:05:33;9.70;;;6.55;;
38937;SDS011;24727;51.974;20.868;2023-04-25T14:08:06;8.50;;;6.10;;
38937;SDS011;24727;51.974;20.868;2023-04-25T14:10:33;8.60;;;6.38;;
38937;SDS011;24727;51.974;20.868;2023-04-25T14:13:00;9.80;;;7.13;;
38937;SDS011;24727;51.974;20.868;2023-04-25T14:15:28;29.42;;;16.25;;
38937;SDS011;24727;51.974;20.868;2023-04-25T14:18:02;19.60;;;11.23;;
38937;SDS011;24727;51.974;20.868;2023-04-25T14:20:28;25.58;;;15.38;;
38937;SDS011;24727;51.974;20.868;2023-04-25T14:22:55;33.75;;;18.10;;
38937;SDS011;24727;51.974;20.868;2023-04-25T14:25:23;31.38;;;18.30;;
38937;SDS011;24727;51.974;20.868;2023-04-25T14:27:51;31.30;;;17.73;;
38937;SDS011;24727;51.974;20.868;2023-04-25T14:30:17;30.17;;;19.65;;
38937;SDS011;24727;51.974;20.868;2023-04-25T14:35:14;15.55;;;9.80;;
38937;SDS011;24727;51.974;20.868;2023-04-25T14:37:40;15.27;;;10.15;;
38937;SDS011;24727;51.974;20.868;2023-04-25T14:40:07;12.77;;;8.68;;
38937;SDS011;24727;51.974;20.868;2023-04-25T14:42:36;10.10;;;7.82;;
38937;SDS011;24727;51.974;20.868;2023-04-25T14:45:05;12.80;;;9.40;;
38937;SDS011;24727;51.974;20.868;2023-04-25T14:47:32;12.88;;;9.27;;